sensor_id;sensor_type;location;lat;lon;timestamp;pressure;altitude;pressure_sealevel;temperature;humidity
7832;BME280;3961;42.058;25.586;2022-12-16T00:01:08;62837.50;;;5.62;100.00
7832;BME280;3961;42.058;25.586;2022-12-16T00:03:34;62827.53;;;5.51;100.00
7832;BME280;3961;42.058;25.586;2022-12-16T00:06:00;62845.31;;;5.66;100.00
7832;BME280;3961;42.058;25.586;2022-12-16T00:08:32;62838.75;;;5.58;100.00
7832;BME280;3961;42.058;25.586;2022-12-16T00:10:59;62827.84;;;5.49;100.00
7832;BME280;3961;42.058;25.586;2022-12-16T00:13:25;62825.81;;;5.49;100.00
7832;BME280;3961;42.058;25.586;2022-12-16T00:15:54;62841.97;;;5.59;100.00
7832;BME280;3961;42.058;25.586;2022-12-16T00:18:20;62818.09;;;5.40;100.00
7832;BME280;3961;42.058;25.586;2022-12-16T00:20:48;62833.59;;;5.54;100.00
7832;BME280;3961;42.058;25.586;2022-12-16T00:23:14;62799.13;;;5.23;100.00
7832;BME280;3961;42.058;25.586;2022-12-16T00:25:41;62837.50;;;5.62;100.00
7832;BME280;3961;42.058;25.586;2022-12-16T00:28:07;62853.13;;;5.71;100.00
7832;BME280;3961;42.058;25.586;2022-12-16T00:30:33;62844.16;;;5.65;100.00
7832;BME280;3961;42.058;25.586;2022-12-16T00:32:58;62849.91;;;5.70;100.00
7832;BME280;3961;42.058;25.586;2022-12-16T00:35:24;62834.88;;;5.62;100.00
7832;BME280;3961;42.058;25.586;2022-12-16T00:37:49;62830.94;;;5.54;100.00
7832;BME280;3961;42.058;25.586;2022-12-16T00:40:15;62829.81;;;5.53;100.00
7832;BME280;3961;42.058;25.586;2022-12-16T00:42:40;62845.31;;;5.66;100.00
7832;BME280;3961;42.058;25.586;2022-12-16T00:45:06;62803.16;;;5.27;100.00
7832;BME280;3961;42.058;25.586;2022-12-16T00:47:32;62815.78;;;5.38;100.00
7832;BME280;3961;42.058;25.586;2022-12-16T00:49:57;62826.72;;;5.48;100.00
7832;BME280;3961;42.058;25.586;2022-12-16T00:52:23;62820.06;;;5.44;100.00
7832;BME280;3961;42.058;25.586;2022-12-16T00:54:48;62803.41;;;5.29;100.00
7832;BME280;3961;42.058;25.586;2022-12-16T00:57:14;62819.50;;;5.44;100.00
7832;BME280;3961;42.058;25.586;2022-12-16T00:59:39;62817.28;;;5.37;100.00
7832;BME280;3961;42.058;25.586;2022-12-16T01:02:05;62829.91;;;5.48;100.00
7832;BME280;3961;42.058;25.586;2022-12-16T01:04:31;62828.19;;;5.47;100.00
7832;BME280;3961;42.058;25.586;2022-12-16T01:06:56;62836.13;;;5.58;100.00
7832;BME280;3961;42.058;25.586;2022-12-16T01:09:22;62822.34;;;5.46;100.00
7832;BME280;3961;42.058;25.586;2022-12-16T01:11:48;62825.91;;;5.45;100.00
7832;BME280;3961;42.058;25.586;2022-12-16T01:14:13;62853.34;;;5.73;100.00
7832;BME280;3961;42.058;25.586;2022-12-16T01:16:39;62868.06;;;5.84;100.00
7832;BME280;3961;42.058;25.586;2022-12-16T01:19:04;62872.31;;;5.90;100.00
7832;BME280;3961;42.058;25.586;2022-12-16T01:21:30;62879.78;;;5.97;100.00
7832;BME280;3961;42.058;25.586;2022-12-16T01:23:55;62885.31;;;5.99;100.00
7832;BME280;3961;42.058;25.586;2022-12-16T01:26:21;62887.59;;;6.01;100.00
7832;BME280;3961;42.058;25.586;2022-12-16T01:28:47;62877.50;;;5.95;100.00
7832;BME280;3961;42.058;25.586;2022-12-16T01:31:14;62898.19;;;6.13;100.00
7832;BME280;3961;42.058;25.586;2022-12-16T01:33:40;62902.53;;;6.15;100.00
7832;BME280;3961;42.058;25.586;2022-12-16T01:36:07;62915.75;;;6.26;100.00
7832;BME280;3961;42.058;25.586;2022-12-16T01:38:34;62919.78;;;6.30;100.00
7832;BME280;3961;42.058;25.586;2022-12-16T01:41:00;62919.44;;;6.32;100.00
7832;BME280;3961;42.058;25.586;2022-12-16T01:43:30;62937.59;;;6.46;100.00
7832;BME280;3961;42.058;25.586;2022-12-16T01:46:00;62947.59;;;6.57;100.00
7832;BME280;3961;42.058;25.586;2022-12-16T01:48:32;62930.38;;;6.42;100.00
7832;BME280;3961;42.058;25.586;2022-12-16T01:51:17;62927.16;;;6.41;100.00
7832;BME280;3961;42.058;25.586;2022-12-16T01:53:46;62932.41;;;6.41;100.00
7832;BME280;3961;42.058;25.586;2022-12-16T01:56:14;62929.31;;;6.36;100.00
7832;BME280;3961;42.058;25.586;2022-12-16T01:58:43;62943.22;;;6.55;100.00
7832;BME280;3961;42.058;25.586;2022-12-16T02:01:10;62934.72;;;6.43;100.00
7832;BME280;3961;42.058;25.586;2022-12-16T02:03:37;62935.53;;;6.46;100.00
7832;BME280;3961;42.058;25.586;2022-12-16T02:06:05;62948.50;;;6.55;100.00
7832;BME280;3961;42.058;25.586;2022-12-16T02:08:30;62912.53;;;6.26;100.00
7832;BME280;3961;42.058;25.586;2022-12-16T02:13:49;62931.03;;;6.37;100.00
7832;BME280;3961;42.058;25.586;2022-12-16T02:27:54;62953.09;;;6.59;100.00
7832;BME280;3961;42.058;25.586;2022-12-16T02:35:43;62927.16;;;6.41;100.00
7832;BME280;3961;42.058;25.586;2022-12-16T02:38:26;62951.13;;;6.55;100.00
7832;BME280;3961;42.058;25.586;2022-12-16T02:41:01;62941.63;;;6.49;100.00
7832;BME280;3961;42.058;25.586;2022-12-16T02:46:06;62938.41;;;6.49;100.00
7832;BME280;3961;42.058;25.586;2022-12-16T02:48:33;62931.28;;;6.40;100.00
7832;BME280;3961;42.058;25.586;2022-12-16T02:50:58;62942.53;;;6.48;100.00
7832;BME280;3961;42.058;25.586;2022-12-16T02:53:24;62948.16;;;6.57;100.00
7832;BME280;3961;42.058;25.586;2022-12-16T02:58:34;62951.28;;;6.62;100.00
7832;BME280;3961;42.058;25.586;2022-12-16T03:03:43;62965.19;;;6.70;100.00
7832;BME280;3961;42.058;25.586;2022-12-16T03:06:10;62970.28;;;6.79;100.00
7832;BME280;3961;42.058;25.586;2022-12-16T03:08:39;62970.03;;;6.77;100.00
7832;BME280;3961;42.058;25.586;2022-12-16T03:11:08;62981.50;;;6.87;100.00
7832;BME280;3961;42.058;25.586;2022-12-16T03:13:40;62982.09;;;6.87;100.00
7832;BME280;3961;42.058;25.586;2022-12-16T03:16:09;62987.25;;;6.92;100.00
7832;BME280;3961;42.058;25.586;2022-12-16T03:18:43;62967.50;;;6.72;100.00
7832;BME280;3961;42.058;25.586;2022-12-16T03:21:11;62966.91;;;6.71;100.00
7832;BME280;3961;42.058;25.586;2022-12-16T03:23:57;62966.56;;;6.73;100.00
7832;BME280;3961;42.058;25.586;2022-12-16T03:26:29;62967.50;;;6.72;100.00
7832;BME280;3961;42.058;25.586;2022-12-16T03:36:52;62982.19;;;6.83;100.00
7832;BME280;3961;42.058;25.586;2022-12-16T03:39:20;62980.34;;;6.86;100.00
7832;BME280;3961;42.058;25.586;2022-12-16T03:41:50;62982.19;;;6.83;100.00
7832;BME280;3961;42.058;25.586;2022-12-16T03:44:19;62975.44;;;6.84;100.00
7832;BME280;3961;42.058;25.586;2022-12-16T03:46:46;62992.22;;;6.94;100.00
7832;BME280;3961;42.058;25.586;2022-12-16T03:49:12;62991.06;;;6.93;100.00
7832;BME280;3961;42.058;25.586;2022-12-16T03:51:37;62987.50;;;6.94;100.00
7832;BME280;3961;42.058;25.586;2022-12-16T03:54:03;63006.25;;;7.08;100.00
7832;BME280;3961;42.058;25.586;2022-12-16T03:56:28;62990.16;;;6.94;100.00
7832;BME280;3961;42.058;25.586;2022-12-16T03:58:54;63006.00;;;7.06;100.00
7832;BME280;3961;42.058;25.586;2022-12-16T04:01:19;63011.06;;;7.15;100.00
7832;BME280;3961;42.058;25.586;2022-12-16T04:03:45;63018.66;;;7.17;100.00
7832;BME280;3961;42.058;25.586;2022-12-16T04:06:10;63019.47;;;7.20;100.00
7832;BME280;3961;42.058;25.586;2022-12-16T04:08:36;63001.66;;;7.04;100.00
7832;BME280;3961;42.058;25.586;2022-12-16T04:11:01;63010.94;;;7.08;100.00
7832;BME280;3961;42.058;25.586;2022-12-16T04:13:45;63014.88;;;7.16;100.00
7832;BME280;3961;42.058;25.586;2022-12-16T04:16:30;63000.75;;;7.06;100.00
7832;BME280;3961;42.058;25.586;2022-12-16T04:19:29;63018.09;;;7.17;100.00
7832;BME280;3961;42.058;25.586;2022-12-16T04:22:30;63025.81;;;7.26;100.00
7832;BME280;3961;42.058;25.586;2022-12-16T04:25:37;63028.69;;;7.28;100.00
7832;BME280;3961;42.058;25.586;2022-12-16T04:28:02;63023.25;;;7.21;100.00
7832;BME280;3961;42.058;25.586;2022-12-16T04:30:31;63018.66;;;7.17;100.00
7832;BME280;3961;42.058;25.586;2022-12-16T04:33:02;63019.47;;;7.20;100.00
7832;BME280;3961;42.058;25.586;2022-12-16T04:35:47;63011.06;;;7.15;100.00
7832;BME280;3961;42.058;25.586;2022-12-16T04:38:31;63012.34;;;7.12;100.00
7832;BME280;3961;42.058;25.586;2022-12-16T04:41:20;63023.03;;;7.19;100.00
7832;BME280;3961;42.058;25.586;2022-12-16T04:44:04;63018.66;;;7.17;100.00
7832;BME280;3961;42.058;25.586;2022-12-16T04:46:48;63023.25;;;7.21;100.00
7832;BME280;3961;42.058;25.586;2022-12-16T04:49:32;63020.03;;;7.21;100.00
7832;BME280;3961;42.058;25.586;2022-12-16T04:52:17;63019.13;;;7.22;100.00
7832;BME280;3961;42.058;25.586;2022-12-16T04:55:01;63024.41;;;7.22;100.00
7832;BME280;3961;42.058;25.586;2022-12-16T04:57:56;62999.34;;;7.02;100.00
7832;BME280;3961;42.058;25.586;2022-12-16T05:00:57;63017.16;;;7.18;100.00
7832;BME280;3961;42.058;25.586;2022-12-16T05:03:42;63012.91;;;7.12;100.00
7832;BME280;3961;42.058;25.586;2022-12-16T05:06:26;63006.25;;;7.08;100.00
7832;BME280;3961;42.058;25.586;2022-12-16T05:09:09;63006.00;;;7.06;100.00
7832;BME280;3961;42.058;25.586;2022-12-16T05:11:53;63006.59;;;7.06;100.00
7832;BME280;3961;42.058;25.586;2022-12-16T05:14:37;63006.50;;;7.11;100.00
7832;BME280;3961;42.058;25.586;2022-12-16T05:17:21;63003.13;;;7.03;100.00
7832;BME280;3961;42.058;25.586;2022-12-16T05:20:06;63006.84;;;7.09;100.00
7832;BME280;3961;42.058;25.586;2022-12-16T05:22:50;62988.91;;;6.98;100.00
7832;BME280;3961;42.058;25.586;2022-12-16T05:25:34;63007.97;;;7.10;100.00
7832;BME280;3961;42.058;25.586;2022-12-16T05:28:19;62999.59;;;7.05;100.00
7832;BME280;3961;42.058;25.586;2022-12-16T05:31:03;62984.06;;;6.91;100.00
7832;BME280;3961;42.058;25.586;2022-12-16T05:33:47;62998.19;;;7.01;100.00
7832;BME280;3961;42.058;25.586;2022-12-16T05:36:31;62995.31;;;6.99;100.00
7832;BME280;3961;42.058;25.586;2022-12-16T05:39:15;62980.94;;;6.86;100.00
7832;BME280;3961;42.058;25.586;2022-12-16T05:41:59;62984.97;;;6.90;100.00
7832;BME280;3961;42.058;25.586;2022-12-16T05:44:44;63004.28;;;7.04;100.00
7832;BME280;3961;42.058;25.586;2022-12-16T05:47:39;62999.09;;;7.00;100.00
7832;BME280;3961;42.058;25.586;2022-12-16T05:50:23;63004.53;;;7.07;100.00
7832;BME280;3961;42.058;25.586;2022-12-16T05:53:07;63006.34;;;7.04;100.00
7832;BME280;3961;42.058;25.586;2022-12-16T05:55:51;63018.66;;;7.17;100.00
7832;BME280;3961;42.058;25.586;2022-12-16T05:58:36;63017.50;;;7.16;100.00
7832;BME280;3961;42.058;25.586;2022-12-16T06:01:21;63016.59;;;7.18;100.00
7832;BME280;3961;42.058;25.586;2022-12-16T06:04:05;63016.72;;;7.13;100.00
7832;BME280;3961;42.058;25.586;2022-12-16T06:06:49;63010.63;;;7.10;100.00
7832;BME280;3961;42.058;25.586;2022-12-16T06:09:33;63012.59;;;7.14;100.00
7832;BME280;3961;42.058;25.586;2022-12-16T06:12:17;63013.50;;;7.13;100.00
7832;BME280;3961;42.058;25.586;2022-12-16T06:15:01;63010.63;;;7.10;100.00
7832;BME280;3961;42.058;25.586;2022-12-16T06:17:49;63009.47;;;7.09;100.00
7832;BME280;3961;42.058;25.586;2022-12-16T06:20:34;63026.72;;;7.24;100.00
7832;BME280;3961;42.058;25.586;2022-12-16T06:23:18;63033.63;;;7.30;100.00
7832;BME280;3961;42.058;25.586;2022-12-16T06:26:02;62991.88;;;6.96;100.00
7832;BME280;3961;42.058;25.586;2022-12-16T06:28:46;63057.53;;;7.49;100.00
7832;BME280;3961;42.058;25.586;2022-12-16T06:31:30;63058.94;;;7.53;100.00
7832;BME280;3961;42.058;25.586;2022-12-16T06:34:14;63062.63;;;7.58;100.00
7832;BME280;3961;42.058;25.586;2022-12-16T06:36:58;63055.97;;;7.55;100.00
7832;BME280;3961;42.058;25.586;2022-12-16T06:39:42;63061.22;;;7.55;100.00
7832;BME280;3961;42.058;25.586;2022-12-16T06:42:26;63074.72;;;7.69;100.00
7832;BME280;3961;42.058;25.586;2022-12-16T06:45:10;63080.81;;;7.72;100.00
7832;BME280;3961;42.058;25.586;2022-12-16T06:47:54;63072.75;;;7.65;100.00
7832;BME280;3961;42.058;25.586;2022-12-16T06:50:38;63085.75;;;7.74;100.00
7832;BME280;3961;42.058;25.586;2022-12-16T06:53:21;63093.72;;;7.86;100.00
7832;BME280;3961;42.058;25.586;2022-12-16T06:56:05;63087.94;;;7.81;100.00
7832;BME280;3961;42.058;25.586;2022-12-16T06:58:50;63092.78;;;7.87;100.00
7832;BME280;3961;42.058;25.586;2022-12-16T07:01:34;63094.63;;;7.84;100.00
7832;BME280;3961;42.058;25.586;2022-12-16T07:04:18;63110.41;;;8.00;100.00
7832;BME280;3961;42.058;25.586;2022-12-16T07:07:02;63119.38;;;8.06;100.00
7832;BME280;3961;42.058;25.586;2022-12-16T07:09:46;63105.22;;;7.96;100.00
7832;BME280;3961;42.058;25.586;2022-12-16T07:12:30;63116.50;;;8.03;100.00
7832;BME280;3961;42.058;25.586;2022-12-16T07:15:14;63121.69;;;8.08;100.00
7832;BME280;3961;42.058;25.586;2022-12-16T07:17:58;63300.16;;;9.63;100.00
7832;BME280;3961;42.058;25.586;2022-12-16T07:20:46;63477.09;;;11.21;100.00
7832;BME280;3961;42.058;25.586;2022-12-16T07:23:30;63347.00;;;10.11;100.00
7832;BME280;3961;42.058;25.586;2022-12-16T07:26:14;63312.47;;;9.76;100.00
7832;BME280;3961;42.058;25.586;2022-12-16T07:28:59;63397.03;;;10.53;100.00
7832;BME280;3961;42.058;25.586;2022-12-16T07:31:43;63515.47;;;11.57;100.00
7832;BME280;3961;42.058;25.586;2022-12-16T07:34:27;63396.22;;;10.50;100.00
7832;BME280;3961;42.058;25.586;2022-12-16T07:37:11;63292.31;;;9.58;100.00
7832;BME280;3961;42.058;25.586;2022-12-16T07:39:56;63241.31;;;9.11;100.00
7832;BME280;3961;42.058;25.586;2022-12-16T07:42:41;63197.19;;;8.74;100.00
7832;BME280;3961;42.058;25.586;2022-12-16T07:45:26;63182.19;;;8.61;100.00
7832;BME280;3961;42.058;25.586;2022-12-16T07:48:09;63193.72;;;8.71;100.00
7832;BME280;3961;42.058;25.586;2022-12-16T07:50:53;63190.84;;;8.69;100.00
7832;BME280;3961;42.058;25.586;2022-12-16T07:53:37;63188.78;;;8.69;100.00
7832;BME280;3961;42.058;25.586;2022-12-16T07:56:21;63196.84;;;8.77;100.00
7832;BME280;3961;42.058;25.586;2022-12-16T07:59:05;63192.47;;;8.75;100.00
7832;BME280;3961;42.058;25.586;2022-12-16T08:01:49;63192.81;;;8.73;100.00
7832;BME280;3961;42.058;25.586;2022-12-16T08:04:34;63208.34;;;8.87;100.00
7832;BME280;3961;42.058;25.586;2022-12-16T08:07:17;63206.63;;;8.85;100.00
7832;BME280;3961;42.058;25.586;2022-12-16T08:10:02;63198.69;;;8.73;100.00
7832;BME280;3961;42.058;25.586;2022-12-16T08:12:46;63185.31;;;8.66;100.00
7832;BME280;3961;42.058;25.586;2022-12-16T08:15:30;63198.91;;;8.76;100.00
7832;BME280;3961;42.058;25.586;2022-12-16T08:18:14;63178.41;;;8.60;100.00
7832;BME280;3961;42.058;25.586;2022-12-16T08:20:58;63195.22;;;8.70;100.00
7832;BME280;3961;42.058;25.586;2022-12-16T08:23:42;63203.75;;;8.83;100.00
7832;BME280;3961;42.058;25.586;2022-12-16T08:26:26;63205.22;;;8.82;100.00
7832;BME280;3961;42.058;25.586;2022-12-16T08:29:10;63216.53;;;8.89;100.00
7832;BME280;3961;42.058;25.586;2022-12-16T08:31:54;63227.38;;;9.03;100.00
7832;BME280;3961;42.058;25.586;2022-12-16T08:34:38;63206.06;;;8.85;100.00
7832;BME280;3961;42.058;25.586;2022-12-16T08:37:22;63259.09;;;9.31;100.00
7832;BME280;3961;42.058;25.586;2022-12-16T08:40:07;63335.81;;;9.99;100.00
7832;BME280;3961;42.058;25.586;2022-12-16T08:42:50;63309.84;;;9.76;100.00
7832;BME280;3961;42.058;25.586;2022-12-16T08:45:35;63269.47;;;9.40;100.00
7832;BME280;3961;42.058;25.586;2022-12-16T08:48:18;63268.31;;;9.39;100.00
7832;BME280;3961;42.058;25.586;2022-12-16T08:51:04;63263.72;;;9.35;100.00
7832;BME280;3961;42.058;25.586;2022-12-16T08:53:49;63255.50;;;9.21;100.00
7832;BME280;3961;42.058;25.586;2022-12-16T08:56:33;63251.84;;;9.27;100.00
7832;BME280;3961;42.058;25.586;2022-12-16T08:59:17;63225.66;;;9.02;100.00
7832;BME280;3961;42.058;25.586;2022-12-16T09:02:02;63218.41;;;8.98;100.00
7832;BME280;3961;42.058;25.586;2022-12-16T09:04:47;63189.69;;;8.68;100.00
7832;BME280;3961;42.058;25.586;2022-12-16T09:07:31;63241.53;;;9.14;100.00
7832;BME280;3961;42.058;25.586;2022-12-16T09:10:14;63241.53;;;9.14;100.00
7832;BME280;3961;42.058;25.586;2022-12-16T09:13:07;63248.47;;;9.20;100.00
7832;BME280;3961;42.058;25.586;2022-12-16T09:15:52;63255.72;;;9.24;100.00
7832;BME280;3961;42.058;25.586;2022-12-16T09:18:36;63255.28;;;9.30;100.00
7832;BME280;3961;42.058;25.586;2022-12-16T09:21:20;63248.72;;;9.22;100.00
7832;BME280;3961;42.058;25.586;2022-12-16T09:24:05;63255.28;;;9.30;100.00
7832;BME280;3961;42.058;25.586;2022-12-16T09:26:48;63275.47;;;9.48;100.00
7832;BME280;3961;42.058;25.586;2022-12-16T09:29:32;63289.66;;;9.58;100.00
7832;BME280;3961;42.058;25.586;2022-12-16T09:32:16;63305.59;;;9.70;100.00
7832;BME280;3961;42.058;25.586;2022-12-16T09:35:00;63293.13;;;9.61;100.00
7832;BME280;3961;42.058;25.586;2022-12-16T09:37:45;63304.44;;;9.69;100.00
7832;BME280;3961;42.058;25.586;2022-12-16T09:40:30;63318.50;;;9.84;100.00
7832;BME280;3961;42.058;25.586;2022-12-16T09:49:47;63343.31;;;10.05;100.00
7832;BME280;3961;42.058;25.586;2022-12-16T09:52:40;63361.47;;;10.24;100.00
7832;BME280;3961;42.058;25.586;2022-12-16T09:55:37;63381.78;;;10.37;100.00
7832;BME280;3961;42.058;25.586;2022-12-16T09:58:25;63386.63;;;10.43;100.00
7832;BME280;3961;42.058;25.586;2022-12-16T10:01:11;63390.66;;;10.47;100.00
7832;BME280;3961;42.058;25.586;2022-12-16T10:03:56;63394.47;;;10.48;100.00
7832;BME280;3961;42.058;25.586;2022-12-16T10:06:47;63594.50;;;12.24;100.00
7832;BME280;3961;42.058;25.586;2022-12-16T10:09:47;63496.16;;;11.37;100.00
7832;BME280;3961;42.058;25.586;2022-12-16T10:12:52;63433.75;;;10.83;100.00
7832;BME280;3961;42.058;25.586;2022-12-16T10:22:15;63391.25;;;10.48;100.00
7832;BME280;3961;42.058;25.586;2022-12-16T10:25:14;63393.91;;;10.48;100.00
7832;BME280;3961;42.058;25.586;2022-12-16T10:28:17;63422.09;;;10.77;100.00
7832;BME280;3961;42.058;25.586;2022-12-16T10:31:08;63429.94;;;10.82;100.00
7832;BME280;3961;42.058;25.586;2022-12-16T10:33:55;63375.19;;;10.29;100.00
7832;BME280;3961;42.058;25.586;2022-12-16T10:36:40;63404.88;;;10.57;100.00
7832;BME280;3961;42.058;25.586;2022-12-16T10:39:34;63379.47;;;10.35;100.00
7832;BME280;3961;42.058;25.586;2022-12-16T10:42:26;63396.44;;;10.52;100.00
7832;BME280;3961;42.058;25.586;2022-12-16T10:45:19;63416.09;;;10.69;100.00
7832;BME280;3961;42.058;25.586;2022-12-16T10:48:04;63411.00;;;10.60;100.00
7832;BME280;3961;42.058;25.586;2022-12-16T10:50:47;63409.16;;;10.63;100.00
7832;BME280;3961;42.058;25.586;2022-12-16T10:53:33;63394.13;;;10.50;100.00
7832;BME280;3961;42.058;25.586;2022-12-16T10:59:37;63385.22;;;10.40;100.00
7832;BME280;3961;42.058;25.586;2022-12-16T11:02:24;63415.63;;;10.64;100.00
7832;BME280;3961;42.058;25.586;2022-12-16T11:11:24;63455.38;;;11.04;100.00
7832;BME280;3961;42.058;25.586;2022-12-16T11:17:25;63716.09;;;13.30;100.00
7832;BME280;3961;42.058;25.586;2022-12-16T11:23:18;63583.72;;;12.17;100.00
7832;BME280;3961;42.058;25.586;2022-12-16T11:26:11;63546.47;;;11.82;100.00
7832;BME280;3961;42.058;25.586;2022-12-16T11:31:52;63508.28;;;11.48;100.00
7832;BME280;3961;42.058;25.586;2022-12-16T11:34:37;63500.44;;;11.43;100.00
7832;BME280;3961;42.058;25.586;2022-12-16T11:37:21;63501.47;;;11.37;100.00
7832;BME280;3961;42.058;25.586;2022-12-16T11:40:13;63506.56;;;11.47;100.00
7832;BME280;3961;42.058;25.586;2022-12-16T11:43:00;63524.72;;;11.65;100.00
7832;BME280;3961;42.058;25.586;2022-12-16T11:45:46;63525.06;;;11.63;100.00
7832;BME280;3961;42.058;25.586;2022-12-16T11:48:48;63526.22;;;11.64;100.00
7832;BME280;3961;42.058;25.586;2022-12-16T11:51:45;63534.31;;;11.71;100.00
7832;BME280;3961;42.058;25.586;2022-12-16T11:54:35;63514.06;;;11.53;100.00
7832;BME280;3961;42.058;25.586;2022-12-16T11:57:31;63483.44;;;11.26;100.00
7832;BME280;3961;42.058;25.586;2022-12-16T12:00:18;63471.88;;;11.16;100.00
7832;BME280;3961;42.058;25.586;2022-12-16T12:03:10;63500.53;;;11.39;100.00
7832;BME280;3961;42.058;25.586;2022-12-16T12:08:52;63499.63;;;11.40;100.00
7832;BME280;3961;42.058;25.586;2022-12-16T12:11:55;63481.13;;;11.24;100.00
7832;BME280;3961;42.058;25.586;2022-12-16T12:17:42;63454.22;;;11.03;100.00
7832;BME280;3961;42.058;25.586;2022-12-16T12:20:45;63469.91;;;11.12;100.00
7832;BME280;3961;42.058;25.586;2022-12-16T12:26:36;63494.78;;;11.34;100.00
7832;BME280;3961;42.058;25.586;2022-12-16T12:32:45;63468.66;;;11.16;100.00
7832;BME280;3961;42.058;25.586;2022-12-16T12:38:22;63459.75;;;11.05;100.00
7832;BME280;3961;42.058;25.586;2022-12-16T12:41:17;63459.75;;;11.05;100.00
7832;BME280;3961;42.058;25.586;2022-12-16T12:47:06;63468.06;;;11.15;100.00
7832;BME280;3961;42.058;25.586;2022-12-16T12:50:11;63491.66;;;11.29;100.00
7832;BME280;3961;42.058;25.586;2022-12-16T12:58:53;63490.97;;;11.33;100.00
7832;BME280;3961;42.058;25.586;2022-12-16T13:01:41;63494.66;;;11.38;100.00
7832;BME280;3961;42.058;25.586;2022-12-16T13:04:26;63497.19;;;11.43;100.00
7832;BME280;3961;42.058;25.586;2022-12-16T13:07:12;63488.88;;;11.33;100.00
7832;BME280;3961;42.058;25.586;2022-12-16T13:16:09;63500.78;;;11.41;100.00
7832;BME280;3961;42.058;25.586;2022-12-16T13:22:33;63490.84;;;11.37;100.00
7832;BME280;3961;42.058;25.586;2022-12-16T13:28:22;63505.41;;;11.45;100.00
7832;BME280;3961;42.058;25.586;2022-12-16T13:31:08;63510.38;;;11.48;100.00
7832;BME280;3961;42.058;25.586;2022-12-16T13:33:53;63512.34;;;11.52;100.00
7832;BME280;3961;42.058;25.586;2022-12-16T13:36:52;63511.19;;;11.51;100.00
7832;BME280;3961;42.058;25.586;2022-12-16T13:39:37;63530.97;;;11.63;100.00
7832;BME280;3961;42.058;25.586;2022-12-16T13:45:29;63522.41;;;11.63;100.00
7832;BME280;3961;42.058;25.586;2022-12-16T13:54:33;63515.81;;;11.55;100.00
7832;BME280;3961;42.058;25.586;2022-12-16T13:57:21;63514.31;;;11.56;100.00
7832;BME280;3961;42.058;25.586;2022-12-16T14:00:18;63499.16;;;11.35;100.00
7832;BME280;3961;42.058;25.586;2022-12-16T14:03:10;63503.09;;;11.43;100.00
7832;BME280;3961;42.058;25.586;2022-12-16T14:05:54;63488.53;;;11.35;100.00
7832;BME280;3961;42.058;25.586;2022-12-16T14:08:39;63491.31;;;11.31;100.00
7832;BME280;3961;42.058;25.586;2022-12-16T14:14:41;63479.75;;;11.21;100.00
7832;BME280;3961;42.058;25.586;2022-12-16T14:17:44;63476.50;;;11.20;100.00
7832;BME280;3961;42.058;25.586;2022-12-16T14:20:42;63473.28;;;11.20;100.00
7832;BME280;3961;42.058;25.586;2022-12-16T14:26:14;63468.41;;;11.13;100.00
7832;BME280;3961;42.058;25.586;2022-12-16T14:29:00;63467.84;;;11.13;100.00
7832;BME280;3961;42.058;25.586;2022-12-16T14:31:45;63609.53;;;12.37;100.00
7832;BME280;3961;42.058;25.586;2022-12-16T14:34:32;63702.19;;;13.18;100.00
7832;BME280;3961;42.058;25.586;2022-12-16T14:37:19;63649.47;;;12.72;100.00
7832;BME280;3961;42.058;25.586;2022-12-16T14:40:18;63566.72;;;11.99;100.00
7832;BME280;3961;42.058;25.586;2022-12-16T14:43:02;63548.44;;;11.86;100.00
7832;BME280;3961;42.058;25.586;2022-12-16T14:45:53;63526.22;;;11.64;100.00
7832;BME280;3961;42.058;25.586;2022-12-16T14:48:38;63495.22;;;11.39;100.00
7832;BME280;3961;42.058;25.586;2022-12-16T14:51:35;63490.63;;;11.35;100.00
7832;BME280;3961;42.058;25.586;2022-12-16T14:57:19;63449.00;;;10.98;100.00
7832;BME280;3961;42.058;25.586;2022-12-16T15:02:53;63450.28;;;10.95;100.00
7832;BME280;3961;42.058;25.586;2022-12-16T15:05:39;63444.16;;;10.92;100.00
7832;BME280;3961;42.058;25.586;2022-12-16T15:08:25;63438.94;;;10.87;100.00
7832;BME280;3961;42.058;25.586;2022-12-16T15:11:11;63447.28;;;10.97;100.00
7832;BME280;3961;42.058;25.586;2022-12-16T15:13:58;63440.09;;;10.88;100.00
7832;BME280;3961;42.058;25.586;2022-12-16T15:16:43;63442.56;;;10.97;100.00
7832;BME280;3961;42.058;25.586;2022-12-16T15:19:32;63443.91;;;10.89;100.00
7832;BME280;3961;42.058;25.586;2022-12-16T15:22:19;63437.22;;;10.86;100.00
7832;BME280;3961;42.058;25.586;2022-12-16T15:25:04;63429.94;;;10.82;100.00
7832;BME280;3961;42.058;25.586;2022-12-16T15:27:55;63426.81;;;10.76;100.00
7832;BME280;3961;42.058;25.586;2022-12-16T15:30:45;63425.31;;;10.77;100.00
7832;BME280;3961;42.058;25.586;2022-12-16T15:33:33;63423.91;;;10.74;100.00
7832;BME280;3961;42.058;25.586;2022-12-16T15:39:10;63406.59;;;10.59;100.00
7832;BME280;3961;42.058;25.586;2022-12-16T15:41:54;63414.00;;;10.70;100.00
7832;BME280;3961;42.058;25.586;2022-12-16T15:44:46;63408.00;;;10.62;100.00
7832;BME280;3961;42.058;25.586;2022-12-16T15:47:34;63411.81;;;10.63;100.00
7832;BME280;3961;42.058;25.586;2022-12-16T15:50:22;63411.81;;;10.63;100.00
7832;BME280;3961;42.058;25.586;2022-12-16T15:56:25;63393.31;;;10.47;100.00
7832;BME280;3961;42.058;25.586;2022-12-16T15:59:30;63400.69;;;10.47;100.00
7832;BME280;3961;42.058;25.586;2022-12-16T16:05:13;63378.31;;;10.34;100.00
7832;BME280;3961;42.058;25.586;2022-12-16T16:07:57;63399.09;;;10.52;100.00
7832;BME280;3961;42.058;25.586;2022-12-16T16:10:42;63402.22;;;10.57;100.00
7832;BME280;3961;42.058;25.586;2022-12-16T16:13:43;63411.72;;;10.68;100.00
7832;BME280;3961;42.058;25.586;2022-12-16T16:16:28;63404.97;;;10.53;100.00
7832;BME280;3961;42.058;25.586;2022-12-16T16:19:20;63424.84;;;10.72;100.00
7832;BME280;3961;42.058;25.586;2022-12-16T16:22:11;63423.34;;;10.73;100.00
7832;BME280;3961;42.058;25.586;2022-12-16T16:24:55;63412.28;;;10.68;100.00
7832;BME280;3961;42.058;25.586;2022-12-16T16:27:39;63413.44;;;10.69;100.00
7832;BME280;3961;42.058;25.586;2022-12-16T16:30:23;63428.88;;;10.76;100.00
7832;BME280;3961;42.058;25.586;2022-12-16T16:33:07;63580.72;;;12.07;100.00
7832;BME280;3961;42.058;25.586;2022-12-16T16:35:51;63540.34;;;11.78;100.00
7832;BME280;3961;42.058;25.586;2022-12-16T16:38:35;63500.09;;;11.34;100.00